createdAt,value
2023-01-06T00:00:05.649Z,12.90
2023-01-06T00:00:28.681Z,13.52
2023-01-06T00:00:51.808Z,12.85
2023-01-06T00:01:15.602Z,12.80
2023-01-06T00:01:38.421Z,12.15
2023-01-06T00:02:01.736Z,11.63
2023-01-06T00:02:26.148Z,11.70
2023-01-06T00:02:49.030Z,12.18
2023-01-06T00:03:11.867Z,12.00
2023-01-06T00:03:34.620Z,11.77
2023-01-06T00:03:59.284Z,14.18
2023-01-06T00:04:24.762Z,13.40
2023-01-06T00:04:47.653Z,14.52
2023-01-06T00:05:10.570Z,13.80
2023-01-06T00:05:33.455Z,12.40
2023-01-06T00:05:58.975Z,12.43
2023-01-06T00:06:27.911Z,10.18
2023-01-06T00:06:50.891Z,14.85
2023-01-06T00:07:13.609Z,11.07
2023-01-06T00:07:36.438Z,10.10
2023-01-06T00:07:59.866Z,11.88
2023-01-06T00:08:22.654Z,11.38
2023-01-06T00:08:45.425Z,11.70
2023-01-06T00:09:10.735Z,12.10
2023-01-06T00:09:34.823Z,11.40
2023-01-06T00:09:57.649Z,11.38
2023-01-06T00:10:20.405Z,9.88
2023-01-06T00:10:43.116Z,10.60
2023-01-06T00:11:06.862Z,10.98
2023-01-06T00:11:29.975Z,10.18
2023-01-06T00:11:52.710Z,11.75
2023-01-06T00:12:15.567Z,13.00
2023-01-06T00:12:38.334Z,12.18
2023-01-06T00:13:01.034Z,11.07
2023-01-06T00:13:23.870Z,11.13
2023-01-06T00:13:46.746Z,11.85
2023-01-06T00:14:09.454Z,11.25
2023-01-06T00:14:32.195Z,11.98
2023-01-06T00:14:55.912Z,10.98
2023-01-06T00:15:18.806Z,10.85
2023-01-06T00:15:42.630Z,11.20
2023-01-06T00:16:06.626Z,10.25
2023-01-06T00:16:29.541Z,10.35
2023-01-06T00:16:52.324Z,12.35
2023-01-06T00:17:15.215Z,12.13
2023-01-06T00:17:39.500Z,12.07
2023-01-06T00:18:02.348Z,10.30
2023-01-06T00:18:25.135Z,10.20
2023-01-06T00:18:47.920Z,10.93
2023-01-06T00:19:13.632Z,11.02
2023-01-06T00:19:36.439Z,11.20
2023-01-06T00:19:59.306Z,11.00
2023-01-06T00:20:22.078Z,11.00
2023-01-06T00:20:44.809Z,14.10
2023-01-06T00:21:07.645Z,10.88
2023-01-06T00:21:30.416Z,12.02
2023-01-06T00:21:53.164Z,10.93
2023-01-06T00:22:15.945Z,11.23
2023-01-06T00:22:39.719Z,10.32
2023-01-06T00:23:02.506Z,11.68
2023-01-06T00:23:25.304Z,10.75
2023-01-06T00:23:48.049Z,10.20
2023-01-06T00:24:12.084Z,10.02
2023-01-06T00:24:34.873Z,11.68
2023-01-06T00:24:57.726Z,12.45
2023-01-06T00:25:20.459Z,11.88
2023-01-06T00:25:50.568Z,11.18
2023-01-06T00:26:14.338Z,11.23
2023-01-06T00:26:37.195Z,9.43
2023-01-06T00:27:00.013Z,11.20
2023-01-06T00:27:22.740Z,10.52
2023-01-06T00:27:45.663Z,10.77
2023-01-06T00:28:08.492Z,10.77
2023-01-06T00:28:34.747Z,12.13
2023-01-06T00:28:58.487Z,11.57
2023-01-06T00:29:21.210Z,10.75
2023-01-06T00:29:44.033Z,9.75
2023-01-06T00:30:09.050Z,10.98
2023-01-06T00:30:31.826Z,11.15
2023-01-06T00:30:54.632Z,11.10
2023-01-06T00:31:17.456Z,10.80
2023-01-06T00:31:40.228Z,9.40
2023-01-06T00:32:05.706Z,10.20
2023-01-06T00:32:28.464Z,12.63
2023-01-06T00:32:52.971Z,9.63
2023-01-06T00:33:15.791Z,11.98
2023-01-06T00:33:38.733Z,12.25
2023-01-06T00:34:01.601Z,11.25
2023-01-06T00:34:24.366Z,9.80
2023-01-06T00:34:47.142Z,9.85
2023-01-06T00:35:10.855Z,10.23
2023-01-06T00:35:33.597Z,10.85
2023-01-06T00:35:59.213Z,12.52
2023-01-06T00:36:22.088Z,10.52
2023-01-06T00:36:44.849Z,10.00
2023-01-06T00:37:07.623Z,11.27
2023-01-06T00:37:30.418Z,11.73
2023-01-06T00:37:53.609Z,11.15
2023-01-06T00:38:16.369Z,10.32
2023-01-06T00:38:39.251Z,10.80
2023-01-06T00:39:04.452Z,10.43
2023-01-06T00:39:27.252Z,9.50
2023-01-06T00:39:49.998Z,10.85
2023-01-06T00:40:12.921Z,10.00
2023-01-06T00:40:36.613Z,9.13
2023-01-06T00:40:59.405Z,11.15
2023-01-06T00:41:40.829Z,10.32
2023-01-06T00:42:03.684Z,10.50
2023-01-06T00:42:26.563Z,10.50
2023-01-06T00:42:49.404Z,10.70
2023-01-06T00:43:12.144Z,11.68
2023-01-06T00:43:34.900Z,10.60
2023-01-06T00:43:57.796Z,9.60
2023-01-06T00:44:20.552Z,10.98
2023-01-06T00:44:43.382Z,11.00
2023-01-06T00:45:07.260Z,12.35
2023-01-06T00:45:30.093Z,12.73
2023-01-06T00:45:52.827Z,10.07
2023-01-06T00:46:15.727Z,10.20
2023-01-06T00:46:38.630Z,11.20
2023-01-06T00:47:01.604Z,12.45
2023-01-06T00:47:24.339Z,11.52
2023-01-06T00:47:47.105Z,10.02
2023-01-06T00:48:11.486Z,9.90
2023-01-06T00:48:34.385Z,10.20
2023-01-06T00:49:05.056Z,10.60
2023-01-06T00:49:28.257Z,9.88
2023-01-06T00:49:51.006Z,10.38
2023-01-06T00:50:13.764Z,11.05
2023-01-06T00:50:38.815Z,11.00
2023-01-06T00:51:01.604Z,11.38
2023-01-06T00:51:24.324Z,9.98
2023-01-06T00:51:47.185Z,9.57
2023-01-06T00:52:10.096Z,10.18
2023-01-06T00:52:34.346Z,9.80
2023-01-06T00:52:57.160Z,9.73
2023-01-06T00:53:22.741Z,10.35
2023-01-06T00:53:45.468Z,9.50
2023-01-06T00:54:11.135Z,10.23
2023-01-06T00:54:34.111Z,9.52
2023-01-06T00:54:59.671Z,11.43
2023-01-06T00:55:22.489Z,10.10
2023-01-06T00:55:45.204Z,9.32
2023-01-06T00:56:08.195Z,10.63
2023-01-06T00:56:31.044Z,11.13
2023-01-06T00:56:54.571Z,10.45
2023-01-06T00:57:17.335Z,10.27
2023-01-06T00:57:40.803Z,10.40
2023-01-06T00:58:03.586Z,11.63
2023-01-06T00:58:30.255Z,10.40
2023-01-06T00:58:53.003Z,10.00
2023-01-06T00:59:16.635Z,10.30
2023-01-06T00:59:39.424Z,11.95
2023-01-06T01:00:02.213Z,13.90
2023-01-06T01:00:24.963Z,12.82
2023-01-06T01:00:47.766Z,10.77
2023-01-06T01:01:10.761Z,10.70
2023-01-06T01:01:33.963Z,12.18
2023-01-06T01:01:57.905Z,10.43
2023-01-06T01:02:21.528Z,10.82
2023-01-06T01:02:44.812Z,10.68
2023-01-06T01:03:07.740Z,11.45
2023-01-06T01:03:32.110Z,10.27
2023-01-06T01:03:54.869Z,10.68
2023-01-06T01:04:17.766Z,10.15
2023-01-06T01:04:40.577Z,10.02
2023-01-06T01:05:03.530Z,10.43
2023-01-06T01:05:26.299Z,11.50
2023-01-06T01:05:49.041Z,11.45
2023-01-06T01:06:11.792Z,9.95
2023-01-06T01:06:34.647Z,9.60
2023-01-06T01:06:57.412Z,10.07
2023-01-06T01:07:20.257Z,10.98
2023-01-06T01:07:43.556Z,11.88
2023-01-06T01:08:06.641Z,11.95
2023-01-06T01:08:29.552Z,10.90
2023-01-06T01:08:54.924Z,10.23
2023-01-06T01:09:19.174Z,11.20
2023-01-06T01:09:41.924Z,11.60
2023-01-06T01:10:05.250Z,11.95
2023-01-06T01:10:27.961Z,10.68
2023-01-06T01:10:50.724Z,10.10
2023-01-06T01:11:33.519Z,9.88
2023-01-06T01:12:14.454Z,10.27
2023-01-06T01:12:37.314Z,9.35
2023-01-06T01:13:00.017Z,10.77
2023-01-06T01:13:22.753Z,10.18
2023-01-06T01:13:46.537Z,10.15
2023-01-06T01:14:09.312Z,9.70
2023-01-06T01:14:32.174Z,9.13
2023-01-06T01:14:55.048Z,9.93
2023-01-06T01:15:17.935Z,9.75
2023-01-06T01:15:40.762Z,9.40
2023-01-06T01:16:05.039Z,10.57
2023-01-06T01:16:27.796Z,9.50
2023-01-06T01:16:50.474Z,8.70
2023-01-06T01:17:19.264Z,10.25
2023-01-06T01:17:42.147Z,9.70
2023-01-06T01:18:07.116Z,9.95
2023-01-06T01:18:31.274Z,12.15
2023-01-06T01:18:56.452Z,9.77
2023-01-06T01:19:19.469Z,10.27
2023-01-06T01:19:42.326Z,10.90
2023-01-06T01:20:06.135Z,8.38
2023-01-06T01:20:28.925Z,10.82
2023-01-06T01:20:54.704Z,10.95
2023-01-06T01:21:17.447Z,11.07
2023-01-06T01:21:40.390Z,10.95
2023-01-06T01:22:03.204Z,10.70
2023-01-06T01:22:27.217Z,12.23
2023-01-06T01:22:49.984Z,12.68
2023-01-06T01:23:12.749Z,13.07
2023-01-06T01:23:36.531Z,13.02
2023-01-06T01:23:59.350Z,12.05
2023-01-06T01:24:22.325Z,10.63
2023-01-06T01:24:45.118Z,12.57
2023-01-06T01:25:12.015Z,13.88
2023-01-06T01:25:34.775Z,13.80
2023-01-06T01:26:00.103Z,11.55
2023-01-06T01:26:22.900Z,14.82
2023-01-06T01:26:45.672Z,12.57
2023-01-06T01:27:08.508Z,12.52
2023-01-06T01:27:31.366Z,12.30
2023-01-06T01:27:54.149Z,10.90
2023-01-06T01:28:17.007Z,12.75
2023-01-06T01:28:39.869Z,14.13
2023-01-06T01:29:03.845Z,13.73
2023-01-06T01:29:26.857Z,13.48
2023-01-06T01:29:49.757Z,15.52
2023-01-06T01:30:16.249Z,14.65
2023-01-06T01:30:39.083Z,13.30
2023-01-06T01:31:02.147Z,12.27
2023-01-06T01:31:25.014Z,13.00
2023-01-06T01:31:47.803Z,13.93
2023-01-06T01:32:10.772Z,12.48
2023-01-06T01:32:33.970Z,12.65
2023-01-06T01:32:56.792Z,12.70
2023-01-06T01:33:19.550Z,12.10
2023-01-06T01:33:46.493Z,13.77
2023-01-06T01:34:09.532Z,13.57
2023-01-06T01:34:32.270Z,11.93
2023-01-06T01:34:55.072Z,12.13
2023-01-06T01:35:17.929Z,12.50
2023-01-06T01:35:40.665Z,13.93
2023-01-06T01:36:06.283Z,11.40
2023-01-06T01:36:29.283Z,11.73
2023-01-06T01:36:53.203Z,13.40
2023-01-06T01:37:16.316Z,14.05
2023-01-06T01:37:41.466Z,15.93
2023-01-06T01:38:04.332Z,13.10
2023-01-06T01:38:27.109Z,12.00
2023-01-06T01:38:49.928Z,11.95
2023-01-06T01:39:13.670Z,11.93
2023-01-06T01:39:36.470Z,12.32
2023-01-06T01:39:59.238Z,12.68
2023-01-06T01:40:22.021Z,13.93
2023-01-06T01:40:48.170Z,14.90
2023-01-06T01:41:13.318Z,13.52
2023-01-06T01:41:36.117Z,13.25
2023-01-06T01:41:59.115Z,13.00
2023-01-06T01:42:22.020Z,15.05
2023-01-06T01:42:44.847Z,13.80
2023-01-06T01:43:10.119Z,14.43
2023-01-06T01:43:44.508Z,13.50
2023-01-06T01:44:40.573Z,13.43
2023-01-06T01:45:06.786Z,13.43
2023-01-06T01:45:29.946Z,12.57
2023-01-06T01:45:54.089Z,13.68
2023-01-06T01:46:21.539Z,12.95
2023-01-06T01:46:44.330Z,12.80
2023-01-06T01:47:07.140Z,12.82
2023-01-06T01:47:36.346Z,11.82
2023-01-06T01:48:01.466Z,13.32
2023-01-06T01:48:26.929Z,13.40
2023-01-06T01:48:51.160Z,12.07
2023-01-06T01:49:16.584Z,12.25
2023-01-06T01:49:40.817Z,12.32
2023-01-06T01:50:07.769Z,13.63
2023-01-06T01:50:33.021Z,11.63
2023-01-06T01:50:56.993Z,15.10
2023-01-06T01:51:21.946Z,14.95
2023-01-06T01:51:46.255Z,14.18
2023-01-06T01:52:09.178Z,13.60
2023-01-06T01:52:34.970Z,12.90
2023-01-06T01:53:01.465Z,13.48
2023-01-06T01:53:26.149Z,13.07
2023-01-06T01:53:51.749Z,13.38
2023-01-06T01:54:21.475Z,12.73
2023-01-06T01:54:44.310Z,13.75
2023-01-06T01:55:08.747Z,13.75
2023-01-06T01:55:34.423Z,13.23
2023-01-06T01:55:58.400Z,14.20
2023-01-06T01:56:23.463Z,12.43
2023-01-06T01:56:47.870Z,14.25
2023-01-06T01:57:12.652Z,14.15
2023-01-06T01:57:37.151Z,16.92
2023-01-06T01:58:02.951Z,14.10
2023-01-06T01:58:27.208Z,13.55
2023-01-06T01:58:53.806Z,13.13
2023-01-06T01:59:17.561Z,14.63
2023-01-06T01:59:40.408Z,14.82
2023-01-06T02:00:04.484Z,13.25
2023-01-06T02:00:27.370Z,12.95
2023-01-06T02:00:50.896Z,13.02
2023-01-06T02:01:13.755Z,13.95
2023-01-06T02:01:36.900Z,14.15
2023-01-06T02:02:02.460Z,14.52
2023-01-06T02:02:25.694Z,12.82
2023-01-06T02:02:48.671Z,13.35
2023-01-06T02:03:12.067Z,13.60
2023-01-06T02:03:34.834Z,14.20
2023-01-06T02:03:59.231Z,11.90
2023-01-06T02:04:22.445Z,13.73
2023-01-06T02:04:46.410Z,15.15
2023-01-06T02:05:09.341Z,12.57
2023-01-06T02:05:32.118Z,13.35
2023-01-06T02:05:55.888Z,14.30
2023-01-06T02:06:19.849Z,13.05
2023-01-06T02:06:42.568Z,13.18
2023-01-06T02:07:05.361Z,16.45
2023-01-06T02:07:28.187Z,15.30
2023-01-06T02:07:54.112Z,12.55
2023-01-06T02:08:23.180Z,14.40
2023-01-06T02:08:49.410Z,14.52
2023-01-06T02:09:15.217Z,13.27
2023-01-06T02:09:40.829Z,14.20
2023-01-06T02:10:08.703Z,14.13
2023-01-06T02:10:32.763Z,12.98
2023-01-06T02:10:55.533Z,13.85
2023-01-06T02:11:18.346Z,13.15
2023-01-06T02:11:42.238Z,13.02
2023-01-06T02:12:05.165Z,13.77
2023-01-06T02:12:27.859Z,14.98
2023-01-06T02:12:52.795Z,13.52
2023-01-06T02:13:15.603Z,13.15
2023-01-06T02:13:40.548Z,12.77
2023-01-06T02:14:09.779Z,12.25
2023-01-06T02:14:32.496Z,14.05
2023-01-06T02:14:55.348Z,12.73
2023-01-06T02:15:22.411Z,12.95
2023-01-06T02:15:45.280Z,12.60
2023-01-06T02:16:13.260Z,12.07
2023-01-06T02:16:40.519Z,12.45
2023-01-06T02:17:12.370Z,11.93
2023-01-06T02:17:52.416Z,12.98
2023-01-06T02:18:44.239Z,14.52
2023-01-06T02:19:28.062Z,12.55
2023-01-06T02:20:22.963Z,14.10
2023-01-06T02:20:50.661Z,13.77
2023-01-06T02:21:34.755Z,14.45
2023-01-06T02:22:09.448Z,13.88
2023-01-06T02:22:44.816Z,12.75
2023-01-06T02:23:40.925Z,11.90
2023-01-06T02:24:34.299Z,13.00
2023-01-06T02:25:22.576Z,13.07
2023-01-06T02:26:19.362Z,13.57
2023-01-06T02:27:06.038Z,12.82
2023-01-06T02:27:48.891Z,11.40
2023-01-06T02:28:42.301Z,12.35
2023-01-06T02:29:36.161Z,13.00
2023-01-06T02:30:22.454Z,11.02
2023-01-06T02:31:29.876Z,11.68
2023-01-06T02:32:05.317Z,12.15
2023-01-06T02:32:49.202Z,12.48
2023-01-06T02:33:18.518Z,11.82
2023-01-06T02:33:43.370Z,12.45
2023-01-06T02:34:08.038Z,13.07
2023-01-06T02:34:42.109Z,12.15
2023-01-06T02:35:13.192Z,11.60
2023-01-06T02:35:47.556Z,13.48
2023-01-06T02:36:22.433Z,12.05
2023-01-06T02:36:47.378Z,11.82
2023-01-06T02:37:19.609Z,9.75
2023-01-06T02:37:47.533Z,9.70
2023-01-06T02:38:15.454Z,9.77
2023-01-06T02:38:47.436Z,9.65
2023-01-06T02:39:16.225Z,10.03
2023-01-06T02:39:43.213Z,11.48
2023-01-06T02:40:14.481Z,12.13
2023-01-06T02:40:47.710Z,11.45
2023-01-06T02:41:18.816Z,12.07
2023-01-06T02:41:43.987Z,11.10
2023-01-06T02:42:12.566Z,11.77
2023-01-06T02:42:40.480Z,12.85
2023-01-06T02:43:11.455Z,13.77
2023-01-06T02:43:38.917Z,12.05
2023-01-06T02:44:04.701Z,13.40
2023-01-06T02:44:29.784Z,11.30
2023-01-06T02:44:57.595Z,12.45
2023-01-06T02:45:22.019Z,13.80
2023-01-06T02:45:49.631Z,13.50
2023-01-06T02:46:16.092Z,11.90
2023-01-06T02:46:55.578Z,9.32
2023-01-06T02:47:23.949Z,11.20
2023-01-06T02:47:53.057Z,10.52
2023-01-06T02:48:21.780Z,9.25
2023-01-06T02:48:49.402Z,10.90
2023-01-06T02:49:14.644Z,10.73
2023-01-06T02:49:41.859Z,12.75
2023-01-06T02:50:10.336Z,11.23
2023-01-06T02:50:38.156Z,12.45
2023-01-06T02:51:05.055Z,10.85
2023-01-06T02:51:31.871Z,10.23
2023-01-06T02:51:57.550Z,10.75
2023-01-06T02:52:23.056Z,11.20
2023-01-06T02:52:46.985Z,12.23
2023-01-06T02:53:15.353Z,12.35
2023-01-06T02:53:40.175Z,11.75
2023-01-06T02:54:09.185Z,13.00
2023-01-06T02:54:37.265Z,12.68
2023-01-06T02:55:03.106Z,12.05
2023-01-06T02:55:28.495Z,11.77
2023-01-06T02:55:52.696Z,10.57
2023-01-06T02:56:15.511Z,10.30
2023-01-06T02:56:42.760Z,12.18
2023-01-06T02:57:11.709Z,13.25
2023-01-06T02:57:37.794Z,12.80
2023-01-06T02:58:02.344Z,12.57
2023-01-06T02:58:29.788Z,11.38
2023-01-06T02:58:55.684Z,10.25
2023-01-06T02:59:21.433Z,9.13
2023-01-06T02:59:47.405Z,10.05
2023-01-06T03:00:13.084Z,10.38
2023-01-06T03:00:36.924Z,9.50
2023-01-06T03:01:02.915Z,11.20
2023-01-06T03:01:27.319Z,10.35
2023-01-06T03:01:50.556Z,10.80
2023-01-06T03:02:13.807Z,10.77
2023-01-06T03:02:38.047Z,10.43
2023-01-06T03:03:02.175Z,11.77
2023-01-06T03:03:25.878Z,12.00
2023-01-06T03:03:49.065Z,10.73
2023-01-06T03:04:13.500Z,10.77
2023-01-06T03:04:38.061Z,10.88
2023-01-06T03:05:02.388Z,12.93
2023-01-06T03:05:25.330Z,11.43
2023-01-06T03:05:49.485Z,10.93
2023-01-06T03:06:13.884Z,11.18
2023-01-06T03:06:36.848Z,10.63
2023-01-06T03:07:02.335Z,11.07
2023-01-06T03:07:25.134Z,11.30
2023-01-06T03:07:48.007Z,10.77
2023-01-06T03:08:13.416Z,11.45
2023-01-06T03:08:36.248Z,11.85
2023-01-06T03:09:02.210Z,10.70
2023-01-06T03:09:28.126Z,10.23
2023-01-06T03:09:51.542Z,10.13
2023-01-06T03:10:14.539Z,9.30
2023-01-06T03:10:37.353Z,9.90
2023-01-06T03:11:00.331Z,13.10
2023-01-06T03:11:23.055Z,10.52
2023-01-06T03:11:47.424Z,11.85
2023-01-06T03:12:14.544Z,11.88
2023-01-06T03:12:41.660Z,12.35
2023-01-06T03:13:06.929Z,12.60
2023-01-06T03:13:34.270Z,11.20
2023-01-06T03:13:59.752Z,9.55
2023-01-06T03:14:25.128Z,10.52
2023-01-06T03:14:49.699Z,10.43
2023-01-06T03:15:12.551Z,11.43
2023-01-06T03:15:35.473Z,10.20
2023-01-06T03:16:01.452Z,11.63
2023-01-06T03:16:24.467Z,10.95
2023-01-06T03:16:47.513Z,10.20
2023-01-06T03:17:10.295Z,9.90
2023-01-06T03:17:33.054Z,10.82
2023-01-06T03:17:57.307Z,9.88
2023-01-06T03:18:20.090Z,9.75
2023-01-06T03:18:43.584Z,10.90
2023-01-06T03:19:06.461Z,10.30
2023-01-06T03:19:31.392Z,8.52
2023-01-06T03:19:54.548Z,8.20
2023-01-06T03:20:19.787Z,7.20
2023-01-06T03:20:42.475Z,8.77
2023-01-06T03:21:10.329Z,8.35
2023-01-06T03:21:34.418Z,7.40
2023-01-06T03:22:02.755Z,8.15
2023-01-06T03:22:25.579Z,6.97
2023-01-06T03:22:48.375Z,8.30
2023-01-06T03:23:11.942Z,7.30
2023-01-06T03:23:35.005Z,7.45
2023-01-06T03:23:57.780Z,7.65
2023-01-06T03:24:20.557Z,7.30
2023-01-06T03:24:43.410Z,5.93
2023-01-06T03:25:07.411Z,7.22
2023-01-06T03:25:30.116Z,6.00
2023-01-06T03:25:52.907Z,6.85
2023-01-06T03:26:17.914Z,6.70
2023-01-06T03:26:40.708Z,7.28
2023-01-06T03:27:03.563Z,7.07
2023-01-06T03:27:26.940Z,7.13
2023-01-06T03:27:52.151Z,6.30
2023-01-06T03:28:14.892Z,6.03
2023-01-06T03:28:38.275Z,5.88
2023-01-06T03:29:01.033Z,5.70
2023-01-06T03:29:23.820Z,6.45
2023-01-06T03:29:48.790Z,6.50
2023-01-06T03:30:12.610Z,7.25
2023-01-06T03:30:42.501Z,6.28
2023-01-06T03:31:09.294Z,6.00
2023-01-06T03:31:34.850Z,6.03
2023-01-06T03:32:01.799Z,6.72
2023-01-06T03:32:27.850Z,6.25
2023-01-06T03:32:54.953Z,6.25
2023-01-06T03:33:22.458Z,5.53
2023-01-06T03:33:49.858Z,4.63
2023-01-06T03:34:15.691Z,5.25
2023-01-06T03:34:57.318Z,5.13
2023-01-06T03:35:31.306Z,4.90
2023-01-06T03:36:03.421Z,4.57
2023-01-06T03:36:30.669Z,5.13
2023-01-06T03:36:57.619Z,4.97
2023-01-06T03:37:25.160Z,4.65
2023-01-06T03:37:53.660Z,6.05
2023-01-06T03:38:21.887Z,4.95
2023-01-06T03:38:51.383Z,6.30
2023-01-06T03:39:18.420Z,4.68
2023-01-06T03:39:49.675Z,4.85
2023-01-06T03:40:16.149Z,4.68
2023-01-06T03:40:41.105Z,4.93
2023-01-06T03:41:09.465Z,4.50
2023-01-06T03:41:53.377Z,4.68
2023-01-06T03:42:47.120Z,5.22
2023-01-06T03:43:12.652Z,4.80
2023-01-06T03:43:37.953Z,3.70
2023-01-06T03:44:03.272Z,4.22
2023-01-06T03:44:31.453Z,4.38
2023-01-06T03:44:58.589Z,4.78
2023-01-06T03:45:33.574Z,4.50
2023-01-06T03:46:07.820Z,4.63
2023-01-06T03:46:34.394Z,4.53
2023-01-06T03:47:03.394Z,3.90
2023-01-06T03:47:28.409Z,4.30
2023-01-06T03:47:53.296Z,4.90
2023-01-06T03:48:22.826Z,5.15
2023-01-06T03:48:52.985Z,4.28
2023-01-06T03:49:18.860Z,4.22
2023-01-06T03:49:44.990Z,4.88
2023-01-06T03:50:12.508Z,5.53
2023-01-06T03:50:37.512Z,6.10
2023-01-06T03:51:02.491Z,5.90
2023-01-06T03:51:34.834Z,5.50
2023-01-06T03:51:58.575Z,7.60
2023-01-06T03:52:27.371Z,6.22
2023-01-06T03:52:52.188Z,6.65
2023-01-06T03:53:21.893Z,6.78
2023-01-06T03:53:49.631Z,6.47
2023-01-06T03:54:18.402Z,7.45
2023-01-06T03:54:43.255Z,6.93
2023-01-06T03:55:07.636Z,5.72
2023-01-06T03:55:31.565Z,7.35
2023-01-06T03:56:00.104Z,7.72
2023-01-06T03:56:26.804Z,6.22
2023-01-06T03:56:50.451Z,7.00
2023-01-06T03:57:14.737Z,7.05
2023-01-06T03:57:41.250Z,7.30
2023-01-06T03:58:03.996Z,7.95
2023-01-06T03:58:29.685Z,6.65
2023-01-06T03:58:53.933Z,7.00
2023-01-06T03:59:19.070Z,5.95
2023-01-06T03:59:42.983Z,6.75
2023-01-06T04:00:07.064Z,7.13
2023-01-06T04:00:32.089Z,6.45
2023-01-06T04:00:54.929Z,6.95
2023-01-06T04:01:17.780Z,7.00
2023-01-06T04:01:43.764Z,6.75
2023-01-06T04:02:06.601Z,8.05
2023-01-06T04:02:29.304Z,7.57
2023-01-06T04:02:54.995Z,6.50
2023-01-06T04:03:17.845Z,6.75
2023-01-06T04:03:44.328Z,7.65
2023-01-06T04:04:07.082Z,6.95
2023-01-06T04:04:32.292Z,7.50
2023-01-06T04:05:07.056Z,7.30
2023-01-06T04:05:29.945Z,7.53
2023-01-06T04:05:53.185Z,8.60
2023-01-06T04:06:15.982Z,7.20
2023-01-06T04:06:38.777Z,7.57
2023-01-06T04:07:01.624Z,7.28
2023-01-06T04:07:24.480Z,7.95
2023-01-06T04:07:47.490Z,8.88
2023-01-06T04:08:10.296Z,8.00
2023-01-06T04:08:33.170Z,8.40
2023-01-06T04:08:56.154Z,7.35
2023-01-06T04:09:18.892Z,8.15
2023-01-06T04:09:41.658Z,8.75
2023-01-06T04:10:07.927Z,7.25
2023-01-06T04:10:30.825Z,8.50
2023-01-06T04:10:55.321Z,8.65
2023-01-06T04:11:37.179Z,7.32
2023-01-06T04:12:18.726Z,7.18
2023-01-06T04:12:41.586Z,8.00
2023-01-06T04:13:04.462Z,8.63
2023-01-06T04:13:27.265Z,7.60
2023-01-06T04:13:50.186Z,8.35
2023-01-06T04:14:15.209Z,8.25
2023-01-06T04:14:37.977Z,7.43
2023-01-06T04:15:00.956Z,8.52
2023-01-06T04:15:26.895Z,7.22
2023-01-06T04:15:49.917Z,7.50
2023-01-06T04:16:12.982Z,9.43
2023-01-06T04:16:35.879Z,7.97
2023-01-06T04:16:58.741Z,7.40
2023-01-06T04:17:21.497Z,7.25
2023-01-06T04:17:44.321Z,6.80
2023-01-06T04:18:07.156Z,7.38
2023-01-06T04:18:33.009Z,7.95
2023-01-06T04:19:00.295Z,8.15
2023-01-06T04:19:23.061Z,8.73
2023-01-06T04:19:45.943Z,8.43
2023-01-06T04:20:10.649Z,7.95
2023-01-06T04:20:33.441Z,9.10
2023-01-06T04:20:56.211Z,9.45
2023-01-06T04:21:21.211Z,7.95
2023-01-06T04:21:44.013Z,7.00
2023-01-06T04:22:08.869Z,6.80
2023-01-06T04:22:36.662Z,8.20
2023-01-06T04:22:59.455Z,8.25
2023-01-06T04:23:22.254Z,9.27
2023-01-06T04:23:47.136Z,8.88
2023-01-06T04:24:10.250Z,7.82
2023-01-06T04:24:35.422Z,7.93
2023-01-06T04:24:58.216Z,8.70
2023-01-06T04:25:21.086Z,7.50
2023-01-06T04:25:46.080Z,6.95
2023-01-06T04:26:08.810Z,6.63
2023-01-06T04:26:34.050Z,9.35
2023-01-06T04:26:56.830Z,7.15
2023-01-06T04:27:22.022Z,8.85
2023-01-06T04:27:44.853Z,7.80
2023-01-06T04:28:07.702Z,7.72
2023-01-06T04:28:32.726Z,8.02
2023-01-06T04:28:55.540Z,7.82
2023-01-06T04:29:18.910Z,8.05
2023-01-06T04:29:41.699Z,8.88
2023-01-06T04:30:09.006Z,8.20
2023-01-06T04:30:31.776Z,7.82
2023-01-06T04:30:58.117Z,8.93
2023-01-06T04:31:20.883Z,8.85
2023-01-06T04:31:43.838Z,7.97
2023-01-06T04:32:06.649Z,7.13
2023-01-06T04:32:29.451Z,6.93
2023-01-06T04:32:52.308Z,7.68
2023-01-06T04:33:19.787Z,6.82
2023-01-06T04:33:42.570Z,7.95
2023-01-06T04:34:06.979Z,7.82
2023-01-06T04:34:29.707Z,7.82
2023-01-06T04:34:54.606Z,8.75
2023-01-06T04:35:17.547Z,7.03
2023-01-06T04:35:40.362Z,8.80
2023-01-06T04:36:06.230Z,8.82
2023-01-06T04:36:29.000Z,8.32
2023-01-06T04:36:53.950Z,7.90
2023-01-06T04:37:21.416Z,8.65
2023-01-06T04:37:44.669Z,9.00
2023-01-06T04:38:09.610Z,8.27
2023-01-06T04:38:32.375Z,7.75
2023-01-06T04:38:55.140Z,8.77
2023-01-06T04:39:18.992Z,7.60
2023-01-06T04:39:41.775Z,8.10
2023-01-06T04:40:07.524Z,8.90
2023-01-06T04:40:30.298Z,8.52
2023-01-06T04:40:53.287Z,8.73
2023-01-06T04:41:16.031Z,9.45
2023-01-06T04:41:38.803Z,9.85
2023-01-06T04:42:02.116Z,10.73
2023-01-06T04:42:24.915Z,10.18
2023-01-06T04:43:05.853Z,10.07
2023-01-06T04:43:31.058Z,8.10
2023-01-06T04:43:58.014Z,8.77
2023-01-06T04:44:21.184Z,9.48
2023-01-06T04:44:46.210Z,8.35
2023-01-06T04:45:09.803Z,10.10
2023-01-06T04:45:33.037Z,11.27
2023-01-06T04:45:59.327Z,12.90
2023-01-06T04:46:22.098Z,10.85
2023-01-06T04:46:44.894Z,11.65
2023-01-06T04:47:07.704Z,11.27
2023-01-06T04:47:32.906Z,10.23
2023-01-06T04:47:55.762Z,10.07
2023-01-06T04:48:18.471Z,11.73
2023-01-06T04:48:43.655Z,9.88
2023-01-06T04:49:08.226Z,10.82
2023-01-06T04:49:31.013Z,9.73
2023-01-06T04:49:53.826Z,10.20
2023-01-06T04:50:16.846Z,10.43
2023-01-06T04:50:39.816Z,10.75
2023-01-06T04:51:03.883Z,11.20
2023-01-06T04:51:26.740Z,11.57
2023-01-06T04:51:49.566Z,10.73
2023-01-06T04:52:12.355Z,10.93
2023-01-06T04:52:35.204Z,10.88
2023-01-06T04:53:00.775Z,12.18
2023-01-06T04:53:23.596Z,11.57
2023-01-06T04:53:48.876Z,9.60
2023-01-06T04:54:11.609Z,11.40
2023-01-06T04:54:34.760Z,12.15
2023-01-06T04:54:57.540Z,10.63
2023-01-06T04:55:20.445Z,10.30
2023-01-06T04:55:43.400Z,9.75
2023-01-06T04:56:07.411Z,10.52
2023-01-06T04:56:30.205Z,11.18
2023-01-06T04:56:52.966Z,11.25
2023-01-06T04:57:15.782Z,10.48
2023-01-06T04:57:42.267Z,9.98
2023-01-06T04:58:04.991Z,10.38
2023-01-06T04:58:27.746Z,11.77
2023-01-06T04:58:55.568Z,10.95
2023-01-06T04:59:18.535Z,10.93
2023-01-06T04:59:41.291Z,10.15
2023-01-06T05:00:07.281Z,10.27
2023-01-06T05:00:29.988Z,10.55
2023-01-06T05:00:59.056Z,12.32
2023-01-06T05:01:21.991Z,11.32
2023-01-06T05:01:45.072Z,9.88
2023-01-06T05:02:07.929Z,10.05
2023-01-06T05:02:30.770Z,10.27
2023-01-06T05:02:53.589Z,10.68
2023-01-06T05:03:16.328Z,10.60
2023-01-06T05:03:39.085Z,12.45
2023-01-06T05:04:03.112Z,12.25
2023-01-06T05:04:30.174Z,12.73
2023-01-06T05:04:56.850Z,10.98
2023-01-06T05:05:19.575Z,11.05
2023-01-06T05:05:42.331Z,12.98
2023-01-06T05:06:05.970Z,12.07
2023-01-06T05:06:29.155Z,11.68
2023-01-06T05:06:52.391Z,11.93
2023-01-06T05:07:15.349Z,10.85
2023-01-06T05:07:41.330Z,10.18
2023-01-06T05:08:04.053Z,11.15
2023-01-06T05:08:26.819Z,10.90
2023-01-06T05:08:52.676Z,9.52
2023-01-06T05:09:15.597Z,10.80
2023-01-06T05:09:38.375Z,11.07
2023-01-06T05:10:01.167Z,11.05
2023-01-06T05:10:23.954Z,10.32
2023-01-06T05:10:46.852Z,10.57
2023-01-06T05:11:14.129Z,9.82
2023-01-06T05:11:36.847Z,11.10
2023-01-06T05:11:59.545Z,12.60
2023-01-06T05:12:22.358Z,10.75
2023-01-06T05:12:45.268Z,11.15
2023-01-06T05:13:08.061Z,11.13
2023-01-06T05:13:31.645Z,10.85
2023-01-06T05:13:54.444Z,11.32
2023-01-06T05:14:18.084Z,11.35
2023-01-06T05:14:41.723Z,10.70
2023-01-06T05:15:04.996Z,10.32
2023-01-06T05:15:27.811Z,12.30
2023-01-06T05:15:50.586Z,11.73
2023-01-06T05:16:15.119Z,10.05
2023-01-06T05:16:40.861Z,9.55
2023-01-06T05:17:03.589Z,10.50
2023-01-06T05:17:26.435Z,10.63
2023-01-06T05:17:51.768Z,10.43
2023-01-06T05:18:14.567Z,11.65
2023-01-06T05:18:37.410Z,10.18
2023-01-06T05:19:01.417Z,12.10
2023-01-06T05:19:24.179Z,11.10
2023-01-06T05:19:48.438Z,11.98
2023-01-06T05:20:13.831Z,15.32
2023-01-06T05:20:36.543Z,11.25
2023-01-06T05:21:01.700Z,9.48
2023-01-06T05:21:27.688Z,10.82
2023-01-06T05:21:50.484Z,12.73
2023-01-06T05:22:13.246Z,10.68
2023-01-06T05:22:36.008Z,10.05
2023-01-06T05:22:58.854Z,8.95
2023-01-06T05:23:24.007Z,10.20
2023-01-06T05:23:46.789Z,9.93
2023-01-06T05:24:10.086Z,9.52
2023-01-06T05:24:32.829Z,10.13
2023-01-06T05:24:55.580Z,11.18
2023-01-06T05:25:18.332Z,10.10
2023-01-06T05:25:42.087Z,11.65
2023-01-06T05:26:05.179Z,11.65
2023-01-06T05:26:28.303Z,10.20
2023-01-06T05:26:51.061Z,11.05
2023-01-06T05:27:13.937Z,11.40
2023-01-06T05:27:36.817Z,11.18
2023-01-06T05:27:59.567Z,10.68